Terminal Aerodrome Forecast
Issued by NWS

Home | Current Version | Previous Version | Text Only | Print | Product List | Glossary On
Versions: 1 2 3 4 5 6 7 8 9 10 11 12 13 14 15 16 17 18 19 20 21 22 23 24 25 26 27 28 29 30 31 32 33 34 35 36 37 38 39 40 41 42 43 44 45 46
000
FTUS43 KDDC 151623 AAC
TAFGCK
TAF AMD
KGCK 151623Z 1516/1612 03016G22KT 2SM -DZ BR OVC002
      TEMPO 1516/1518 3/4SM -DZ BR OVC002
     FM151800 01015G25KT P6SM OVC007=

USA.gov is the U.S. government's official web portal to all federal, state and local government web resources and services.